Time;durP1;ratioP1;P1;durP2;ratioP2;P2;SDS_P1;SDS_P2;PMS_P1;PMS_P2;Temp;Humidity;BMP_temperature;BMP_pressure;BME280_temperature;BME280_humidity;BME280_pressure;Samples;Min_cycle;Max_cycle;Signal;HPM_P1;HPM_P2
2022/03/01 00:01:40;;;;;;;32.83;1.42;;;1.00;99.90;;;;;;4450467;32;20073;-65
2022/03/01 00:04:05;;;;;;;1.12;1.02;;;1.00;99.90;;;;;;4454966;32;20085;-65
2022/03/01 00:06:31;;;;;;;0.80;0.80;;;0.90;99.90;;;;;;4442397;32;20073;-65
2022/03/01 00:08:57;;;;;;;0.50;0.50;;;0.90;99.90;;;;;;4437783;32;20418;-65
2022/03/01 00:11:23;;;;;;;0.52;0.52;;;0.90;99.90;;;;;;4432268;32;20077;-65
2022/03/01 00:13:48;;;;;;;0.43;0.43;;;0.80;99.90;;;;;;4436596;32;20061;-65
2022/03/01 00:16:14;;;;;;;1.77;1.65;;;0.70;99.90;;;;;;4437861;32;20196;-65
2022/03/01 00:18:39;;;;;;;0.43;0.43;;;0.70;99.90;;;;;;4431527;32;20419;-65
2022/03/01 00:21:05;;;;;;;0.90;0.85;;;0.70;99.90;;;;;;4442244;32;20084;-65
2022/03/01 00:23:32;;;;;;;0.88;0.88;;;0.70;99.90;;;;;;4437976;32;20527;-65
2022/03/01 00:25:58;;;;;;;3.87;1.12;;;0.60;99.90;;;;;;4431877;32;20315;-65
2022/03/01 00:28:23;;;;;;;11.00;2.42;;;0.70;99.90;;;;;;4439570;32;20141;-65
2022/03/01 00:30:49;;;;;;;1.87;1.50;;;0.60;99.90;;;;;;4442424;32;20116;-65
2022/03/01 00:33:14;;;;;;;0.60;0.60;;;0.70;99.90;;;;;;4441726;32;20582;-65
2022/03/01 00:35:40;;;;;;;0.75;0.75;;;0.70;99.90;;;;;;4442728;32;20852;-65
2022/03/01 00:38:05;;;;;;;1.20;1.12;;;0.60;99.90;;;;;;4443606;32;20441;-65
2022/03/01 00:40:31;;;;;;;0.60;0.60;;;0.50;99.90;;;;;;4442077;32;20085;-65
2022/03/01 00:42:56;;;;;;;0.50;0.50;;;0.50;99.90;;;;;;4444406;32;20293;-65
2022/03/01 00:45:22;;;;;;;0.55;0.55;;;0.40;99.90;;;;;;4434806;32;20150;-65
2022/03/01 00:47:47;;;;;;;1.00;1.00;;;0.50;99.90;;;;;;4441775;32;20550;-65
2022/03/01 00:50:13;;;;;;;1.35;1.25;;;0.50;99.90;;;;;;4426955;32;20439;-65
2022/03/01 00:52:38;;;;;;;0.80;0.80;;;0.40;99.90;;;;;;4442401;32;20103;-65
2022/03/01 00:55:04;;;;;;;2.60;2.08;;;0.40;99.90;;;;;;4448283;32;20096;-65
2022/03/01 00:57:30;;;;;;;1.35;0.80;;;0.40;99.90;;;;;;4453085;32;20089;-65
2022/03/01 00:59:55;;;;;;;0.70;0.70;;;0.40;99.90;;;;;;4445187;32;20385;-65
2022/03/01 01:02:21;;;;;;;2.12;0.82;;;0.20;99.90;;;;;;4450407;32;20080;-65
2022/03/01 01:04:46;;;;;;;0.60;0.60;;;0.30;99.90;;;;;;4445207;32;20089;-65
2022/03/01 01:07:12;;;;;;;5.15;1.58;;;0.30;99.90;;;;;;4441890;32;20088;-65
2022/03/01 01:09:37;;;;;;;0.80;0.80;;;0.30;99.90;;;;;;4439043;32;20056;-65
2022/03/01 01:12:04;;;;;;;1.02;1.00;;;0.20;99.90;;;;;;4429867;32;20066;-65
2022/03/01 01:14:29;;;;;;;0.50;0.50;;;0.20;99.90;;;;;;4433973;32;20065;-65
2022/03/01 01:16:55;;;;;;;1.67;1.00;;;0.20;99.90;;;;;;4442877;32;20376;-65
2022/03/01 01:19:21;;;;;;;1.42;1.30;;;0.20;99.90;;;;;;4443736;32;20470;-65
2022/03/01 01:22:46;;;;;;;0.80;0.80;;;0.30;99.90;;;;;;4439294;32;20138;-65
2022/03/01 01:24:31;;;;;;;0.40;0.40;;;0.20;99.90;;;;;;4436835;32;20120;-65
2022/03/01 01:26:57;;;;;;;0.82;0.82;;;0.20;99.90;;;;;;4428108;32;20534;-65
2022/03/01 01:29:22;;;;;;;0.62;0.62;;;0.20;99.90;;;;;;4439170;32;20100;-65
2022/03/01 01:31:48;;;;;;;0.95;0.93;;;0.30;99.90;;;;;;4439050;32;20090;-66
2022/03/01 01:34:13;;;;;;;1.42;1.33;;;0.30;99.90;;;;;;4442488;32;20081;-65
2022/03/01 01:36:39;;;;;;;0.82;0.82;;;0.10;99.90;;;;;;4442746;32;20068;-65
2022/03/01 01:39:04;;;;;;;0.70;0.70;;;0.10;99.90;;;;;;4447304;32;20081;-65
2022/03/01 01:41:30;;;;;;;0.93;0.93;;;0.10;99.90;;;;;;4443345;32;20085;-65
2022/03/01 01:43:56;;;;;;;1.83;1.27;;;0.10;99.90;;;;;;4451248;32;20069;-65
2022/03/01 01:46:21;;;;;;;0.45;0.45;;;0.10;99.90;;;;;;4441598;32;20498;-65
2022/03/01 01:48:47;;;;;;;1.17;1.08;;;0.10;99.90;;;;;;4441549;32;20069;-66
2022/03/01 01:51:12;;;;;;;0.65;0.65;;;0.00;99.90;;;;;;4442580;32;20085;-65
2022/03/01 01:53:39;;;;;;;0.55;0.55;;;0.00;99.90;;;;;;4445164;32;20126;-65
2022/03/01 01:56:05;;;;;;;0.50;0.50;;;0.00;99.90;;;;;;4450834;32;20072;-65
2022/03/01 01:58:30;;;;;;;0.65;0.65;;;0.00;99.90;;;;;;4444532;32;20068;-66
2022/03/01 02:00:56;;;;;;;0.70;0.70;;;-0.10;99.90;;;;;;4443964;32;20431;-66
2022/03/01 02:03:21;;;;;;;0.60;0.60;;;0.00;99.90;;;;;;4441608;32;20073;-66
2022/03/01 02:05:47;;;;;;;1.02;1.02;;;-0.10;99.90;;;;;;4439185;32;20085;-66
2022/03/01 02:08:12;;;;;;;0.50;0.50;;;0.00;99.90;;;;;;4438427;32;20478;-66
2022/03/01 02:10:38;;;;;;;2.67;1.17;;;0.00;99.90;;;;;;4441326;32;20074;-66
2022/03/01 02:13:03;;;;;;;0.88;0.88;;;0.00;99.90;;;;;;4442175;32;20520;-66
2022/03/01 02:15:29;;;;;;;0.52;0.52;;;0.00;99.90;;;;;;4438238;32;20077;-66
2022/03/01 02:17:54;;;;;;;1.15;1.08;;;-0.10;99.90;;;;;;4438438;32;20081;-66
2022/03/01 02:20:23;;;;;;;3.65;1.60;;;0.00;99.90;;;;;;4441487;32;20089;-66
2022/03/01 02:22:54;;;;;;;1.00;1.00;;;0.00;99.90;;;;;;4444858;32;20083;-66
2022/03/01 02:25:19;;;;;;;0.60;0.60;;;0.00;99.90;;;;;;4444519;32;20065;-66
2022/03/01 02:27:45;;;;;;;0.93;0.93;;;0.00;99.90;;;;;;4444453;32;20085;-66
2022/03/01 02:30:11;;;;;;;16.80;2.55;;;0.10;99.90;;;;;;4443408;32;20169;-66
2022/03/01 02:32:38;;;;;;;0.98;0.73;;;0.10;99.90;;;;;;4440662;32;20513;-66
2022/03/01 02:35:04;;;;;;;0.85;0.85;;;0.10;99.90;;;;;;4441890;32;20072;-66
2022/03/01 02:37:30;;;;;;;0.75;0.75;;;0.00;99.90;;;;;;4442221;32;20477;-66
2022/03/01 02:39:55;;;;;;;0.65;0.65;;;0.00;99.90;;;;;;4436311;32;20097;-66
2022/03/01 02:42:21;;;;;;;0.75;0.75;;;0.00;99.90;;;;;;4442168;32;20061;-66
2022/03/01 02:44:48;;;;;;;0.60;0.60;;;-0.10;99.90;;;;;;4443481;32;20060;-66
2022/03/01 02:47:14;;;;;;;0.77;0.77;;;-0.20;99.90;;;;;;4434775;32;20065;-66
2022/03/01 02:49:40;;;;;;;1.40;1.30;;;-0.10;99.90;;;;;;4438443;32;20081;-66
2022/03/01 02:52:06;;;;;;;0.70;0.70;;;-0.10;99.90;;;;;;4441580;32;20120;-66
2022/03/01 02:54:31;;;;;;;0.80;0.80;;;-0.10;99.90;;;;;;4446743;32;20081;-66
2022/03/01 02:57:00;;;;;;;1.95;1.50;;;-0.10;99.90;;;;;;4443122;32;20076;-66
2022/03/01 02:59:27;;;;;;;0.65;0.65;;;-0.20;99.90;;;;;;4436123;32;20088;-66
2022/03/01 03:01:52;;;;;;;1.12;1.12;;;-0.20;99.90;;;;;;4439516;32;20387;-66
2022/03/01 03:04:18;;;;;;;0.60;0.60;;;-0.10;99.90;;;;;;4444792;32;20314;-66
2022/03/01 03:06:43;;;;;;;0.70;0.70;;;-0.20;99.90;;;;;;4444725;32;20489;-67
2022/03/01 03:09:09;;;;;;;0.50;0.50;;;-0.30;99.90;;;;;;4442993;32;20085;-66
2022/03/01 03:11:34;;;;;;;0.88;0.88;;;-0.20;99.90;;;;;;4443158;32;20139;-66
2022/03/01 03:14:00;;;;;;;1.60;1.50;;;-0.30;99.90;;;;;;4441095;32;20085;-66
2022/03/01 03:16:27;;;;;;;1.08;1.08;;;-0.30;99.90;;;;;;4444328;32;20057;-66
2022/03/01 03:18:52;;;;;;;1.52;1.37;;;-0.30;99.90;;;;;;4442053;32;20109;-66
2022/03/01 03:21:18;;;;;;;1.67;1.55;;;-0.30;99.90;;;;;;4443526;32;20073;-65
2022/03/01 03:23:43;;;;;;;0.70;0.70;;;-0.20;99.90;;;;;;4442100;32;20176;-66
2022/03/01 03:26:09;;;;;;;0.40;0.40;;;-0.20;99.90;;;;;;4442968;32;20171;-66
2022/03/01 03:28:34;;;;;;;0.90;0.90;;;-0.20;99.90;;;;;;4444214;32;20077;-66
2022/03/01 03:31:00;;;;;;;0.75;0.75;;;-0.30;99.90;;;;;;4439727;32;20115;-66
2022/03/01 03:33:25;;;;;;;1.02;0.73;;;-0.20;99.90;;;;;;4442893;32;20135;-66
2022/03/01 03:35:51;;;;;;;2.37;2.15;;;-0.30;99.90;;;;;;4443419;32;20065;-66
2022/03/01 03:38:17;;;;;;;0.50;0.50;;;-0.30;99.90;;;;;;4443033;32;20081;-66
2022/03/01 03:40:42;;;;;;;1.95;1.30;;;-0.40;99.90;;;;;;4443986;32;20104;-66
2022/03/01 03:43:08;;;;;;;49.35;3.42;;;-0.40;99.90;;;;;;4430364;32;20085;-66
2022/03/01 03:45:33;;;;;;;12.70;1.20;;;-0.40;99.90;;;;;;4444656;32;20068;-66
2022/03/01 03:47:59;;;;;;;0.52;0.52;;;-0.40;99.90;;;;;;4442199;32;20108;-66
2022/03/01 03:50:24;;;;;;;0.60;0.60;;;-0.30;99.90;;;;;;4441116;32;20061;-66
2022/03/01 03:52:50;;;;;;;0.60;0.60;;;-0.40;99.90;;;;;;4428230;32;20073;-66
2022/03/01 03:55:15;;;;;;;1.95;1.45;;;-0.40;99.90;;;;;;4433927;32;20068;-66
2022/03/01 03:57:41;;;;;;;0.50;0.50;;;-0.40;99.90;;;;;;4440637;32;20543;-65
2022/03/01 04:00:15;;;;;;;0.60;0.60;;;-0.50;99.90;;;;;;4442383;32;20076;-66
2022/03/01 04:02:40;;;;;;;0.95;0.95;;;-0.50;99.90;;;;;;4442415;32;20089;-66
2022/03/01 04:05:06;;;;;;;13.65;2.08;;;-0.60;99.90;;;;;;4432530;32;20471;-66
2022/03/01 04:07:32;;;;;;;0.60;0.60;;;-0.60;99.90;;;;;;4427796;32;20078;-66
2022/03/01 04:09:57;;;;;;;0.70;0.70;;;-0.50;99.90;;;;;;4441730;32;20065;-66
2022/03/01 04:12:23;;;;;;;0.55;0.55;;;-0.40;99.90;;;;;;4443299;32;20428;-66
2022/03/01 04:14:48;;;;;;;4.05;1.75;;;-0.40;99.90;;;;;;4442851;32;20060;-66
2022/03/01 04:17:14;;;;;;;0.60;0.60;;;-0.40;99.90;;;;;;4442392;32;20077;-66
2022/03/01 04:19:39;;;;;;;0.93;0.93;;;-0.50;99.90;;;;;;4443582;32;20131;-66
2022/03/01 04:22:05;;;;;;;1.00;0.98;;;-0.50;99.90;;;;;;4443395;32;20131;-66
2022/03/01 04:24:30;;;;;;;0.80;0.80;;;-0.40;99.90;;;;;;4443154;32;20068;-66
2022/03/01 04:26:56;;;;;;;1.98;1.65;;;-0.50;99.90;;;;;;4428918;32;20065;-66
2022/03/01 04:29:21;;;;;;;1.77;1.65;;;-0.60;99.90;;;;;;4433476;32;20085;-66
2022/03/01 04:31:47;;;;;;;0.80;0.80;;;-0.50;99.90;;;;;;4442362;32;20562;-66
2022/03/01 04:34:12;;;;;;;0.50;0.50;;;-0.60;99.90;;;;;;4443644;32;20076;-66
2022/03/01 04:36:38;;;;;;;5.15;1.48;;;-0.60;99.90;;;;;;4442187;32;20423;-66
2022/03/01 04:39:04;;;;;;;2.28;1.33;;;-0.70;99.90;;;;;;4440256;32;20077;-65
2022/03/01 04:41:29;;;;;;;0.77;0.77;;;-0.70;99.90;;;;;;4437738;32;20077;-65
2022/03/01 04:43:55;;;;;;;1.17;1.10;;;-0.60;99.90;;;;;;4429173;32;20093;-65
2022/03/01 04:46:20;;;;;;;0.73;0.73;;;-0.70;99.90;;;;;;4444774;32;20069;-65
2022/03/01 04:48:46;;;;;;;1.35;1.25;;;-0.80;99.90;;;;;;4441810;32;20141;-65
2022/03/01 04:51:12;;;;;;;0.60;0.60;;;-0.80;99.90;;;;;;4442496;32;20069;-65
2022/03/01 04:53:38;;;;;;;1.37;1.27;;;-0.80;99.90;;;;;;4439576;32;20064;-65
2022/03/01 04:56:03;;;;;;;0.68;0.68;;;-0.80;99.90;;;;;;4423794;32;20352;-65
2022/03/01 04:58:29;;;;;;;0.80;0.80;;;-0.80;99.90;;;;;;4456132;32;20085;-64
2022/03/01 05:00:55;;;;;;;1.45;1.35;;;-0.80;99.90;;;;;;4446595;32;20077;-66
2022/03/01 05:03:22;;;;;;;0.70;0.70;;;-0.80;99.90;;;;;;4441635;32;20115;-65
2022/03/01 05:05:47;;;;;;;2.35;2.08;;;-0.80;99.90;;;;;;4442089;32;20094;-65
2022/03/01 05:08:13;;;;;;;0.50;0.50;;;-0.80;99.90;;;;;;4445406;32;20415;-65
2022/03/01 05:10:38;;;;;;;6.20;3.22;;;-0.80;99.90;;;;;;4441889;32;20496;-65
2022/03/01 05:13:04;;;;;;;6.40;2.35;;;-0.80;99.90;;;;;;4447401;32;20064;-65
2022/03/01 05:15:30;;;;;;;0.70;0.70;;;-0.90;99.90;;;;;;4444138;32;20077;-65
2022/03/01 05:17:58;;;;;;;0.95;0.93;;;-0.80;99.90;;;;;;4451845;32;20109;-66
2022/03/01 05:20:25;;;;;;;0.80;0.80;;;-0.80;99.90;;;;;;4445751;32;20115;-66
2022/03/01 05:22:51;;;;;;;1.60;0.90;;;-0.80;99.90;;;;;;4429965;32;20056;-66
2022/03/01 05:25:19;;;;;;;0.60;0.60;;;-0.80;99.90;;;;;;4440376;32;20074;-66
2022/03/01 05:27:48;;;;;;;0.82;0.82;;;-0.80;99.90;;;;;;4427637;32;20414;-66
2022/03/01 05:30:15;;;;;;;1.25;1.08;;;-0.80;99.90;;;;;;4442122;32;20577;-66
2022/03/01 05:32:43;;;;;;;1.40;1.35;;;-0.90;99.90;;;;;;4443051;32;20068;-65
2022/03/01 05:35:09;;;;;;;0.65;0.65;;;-0.90;99.90;;;;;;4447862;32;20175;-65
2022/03/01 05:37:36;;;;;;;3.72;1.95;;;-0.90;99.90;;;;;;4441985;32;20494;-65
2022/03/01 05:40:03;;;;;;;0.90;0.90;;;-0.90;99.90;;;;;;4444566;32;20073;-65
2022/03/01 05:42:28;;;;;;;0.65;0.65;;;-0.90;99.90;;;;;;4441900;32;20139;-65
2022/03/01 05:44:55;;;;;;;0.47;0.47;;;-0.90;99.90;;;;;;4443282;32;20073;-65
2022/03/01 05:47:21;;;;;;;1.42;1.37;;;-0.80;99.90;;;;;;4444521;32;20061;-65
2022/03/01 05:49:47;;;;;;;4.53;2.83;;;-0.80;99.90;;;;;;4440955;32;20082;-65
2022/03/01 05:52:13;;;;;;;1.50;1.40;;;-0.80;99.90;;;;;;4442440;32;20404;-65
2022/03/01 05:54:38;;;;;;;1.33;0.98;;;-0.90;99.90;;;;;;4438338;32;20069;-65
2022/03/01 05:57:04;;;;;;;1.85;1.35;;;-0.90;99.90;;;;;;4441235;32;20065;-65
2022/03/01 05:59:29;;;;;;;0.75;0.75;;;-1.00;99.90;;;;;;4442561;32;20414;-65
2022/03/01 06:01:54;;;;;;;1.15;1.12;;;-0.90;99.90;;;;;;4430178;32;20084;-65
2022/03/01 06:04:20;;;;;;;0.57;0.57;;;-0.80;99.90;;;;;;4435243;32;20563;-65
2022/03/01 06:06:46;;;;;;;0.98;0.90;;;-0.80;99.90;;;;;;4434165;32;20129;-65
2022/03/01 06:09:11;;;;;;;0.60;0.60;;;-0.90;99.90;;;;;;4443210;32;20073;-65
2022/03/01 06:11:37;;;;;;;5.32;1.65;;;-0.90;99.90;;;;;;4440090;32;20497;-66
2022/03/01 06:14:03;;;;;;;3.00;1.83;;;-0.90;99.90;;;;;;4434552;32;20131;-65
2022/03/01 06:16:29;;;;;;;1.73;1.15;;;-0.80;99.90;;;;;;4438339;32;20064;-65
2022/03/01 06:18:54;;;;;;;0.73;0.73;;;-0.70;99.90;;;;;;4422891;32;20133;-65
2022/03/01 06:21:20;;;;;;;0.62;0.62;;;-0.80;99.90;;;;;;4435457;32;20068;-65
2022/03/01 06:23:46;;;;;;;0.60;0.60;;;-0.70;99.90;;;;;;4437855;32;20077;-65
2022/03/01 06:26:13;;;;;;;2.22;1.60;;;-0.70;99.90;;;;;;4428844;32;20122;-65
2022/03/01 06:28:38;;;;;;;1.25;1.15;;;-0.60;99.90;;;;;;4429530;32;20173;-66
2022/03/01 06:31:04;;;;;;;1.23;1.12;;;-0.70;99.90;;;;;;4418779;32;20064;-65
2022/03/01 06:33:29;;;;;;;0.52;0.52;;;-0.70;99.90;;;;;;4422717;32;20074;-65
2022/03/01 06:35:55;;;;;;;0.98;0.98;;;-0.80;99.90;;;;;;4428914;32;20137;-65
2022/03/01 06:38:23;;;;;;;0.70;0.70;;;-0.80;99.90;;;;;;4434339;32;20108;-66
2022/03/01 06:40:55;;;;;;;0.82;0.82;;;-0.80;99.90;;;;;;4432113;32;20447;-66
2022/03/01 06:43:22;;;;;;;1.48;1.37;;;-0.70;99.90;;;;;;4437531;32;20126;-66
2022/03/01 06:45:47;;;;;;;0.50;0.50;;;-0.60;99.90;;;;;;4429387;32;20172;-66
2022/03/01 06:48:13;;;;;;;1.33;1.23;;;-0.70;99.90;;;;;;4432475;32;20093;-66
2022/03/01 06:50:38;;;;;;;0.68;0.68;;;-0.80;99.90;;;;;;4423769;32;20248;-66
2022/03/01 06:53:04;;;;;;;6.72;2.00;;;-0.70;99.90;;;;;;4426174;32;20592;-66
2022/03/01 06:55:29;;;;;;;0.62;0.62;;;-0.50;99.90;;;;;;4418214;32;20089;-66
2022/03/01 06:57:56;;;;;;;4.05;2.35;;;-0.50;99.90;;;;;;4413101;32;20144;-66
2022/03/01 07:00:21;;;;;;;1.48;1.12;;;-0.50;99.90;;;;;;4414042;32;22027;-65
2022/03/01 07:02:47;;;;;;;3.58;1.95;;;-0.50;99.90;;;;;;4414884;32;20069;-65
2022/03/01 07:05:14;;;;;;;0.90;0.90;;;-0.60;99.90;;;;;;4418306;32;20122;-65
2022/03/01 07:07:40;;;;;;;2.10;1.77;;;-0.50;99.90;;;;;;4412810;32;20571;-65
2022/03/01 07:10:11;;;;;;;0.80;0.80;;;-0.40;99.90;;;;;;4413903;32;20196;-65
2022/03/01 07:12:36;;;;;;;1.52;1.35;;;-0.40;99.90;;;;;;4408171;32;20101;-65
2022/03/01 07:15:03;;;;;;;0.50;0.50;;;-0.40;99.90;;;;;;4412235;32;20185;-65
2022/03/01 07:17:28;;;;;;;6.57;1.90;;;-0.30;99.90;;;;;;4417113;32;20105;-64
2022/03/01 07:19:54;;;;;;;0.80;0.80;;;-0.20;99.90;;;;;;4412339;32;20106;-65
2022/03/01 07:22:20;;;;;;;1.27;1.17;;;-0.20;99.90;;;;;;4419849;32;22186;-64
2022/03/01 07:24:45;;;;;;;1.17;1.10;;;-0.10;99.90;;;;;;4407662;32;20736;-65
2022/03/01 07:27:11;;;;;;;1.85;1.35;;;-0.10;99.90;;;;;;4415756;32;20554;-66
2022/03/01 07:29:37;;;;;;;1.62;1.50;;;-0.10;99.90;;;;;;4416281;32;20537;-65
2022/03/01 07:32:05;;;;;;;0.57;0.57;;;-0.20;99.90;;;;;;4408557;32;20179;-65
2022/03/01 07:34:31;;;;;;;0.90;0.77;;;-0.10;99.90;;;;;;4409339;32;109667;-66
2022/03/01 07:36:57;;;;;;;0.60;0.60;;;0.10;99.90;;;;;;4410195;32;20060;-65
2022/03/01 07:39:23;;;;;;;0.50;0.50;;;0.30;99.90;;;;;;4408330;32;20296;-65
2022/03/01 07:41:49;;;;;;;1.00;0.98;;;0.50;99.90;;;;;;4397056;32;20093;-65
2022/03/01 07:44:15;;;;;;;2.55;1.60;;;0.50;99.90;;;;;;4410776;32;20211;-65
2022/03/01 07:46:40;;;;;;;0.93;0.93;;;0.60;99.90;;;;;;4407793;32;20065;-66
2022/03/01 07:49:06;;;;;;;1.30;1.05;;;0.70;99.90;;;;;;4403361;32;20228;-66
2022/03/01 07:51:32;;;;;;;3.40;1.70;;;0.90;99.90;;;;;;4398943;32;22301;-65
2022/03/01 07:53:57;;;;;;;1.58;1.48;;;1.00;99.90;;;;;;4405045;32;20143;-66
2022/03/01 07:56:25;;;;;;;0.68;0.68;;;1.10;99.90;;;;;;4411062;32;20101;-66
2022/03/01 07:58:51;;;;;;;0.52;0.52;;;1.30;99.90;;;;;;4409114;32;20593;-65
2022/03/01 08:01:17;;;;;;;1.12;1.05;;;1.50;99.90;;;;;;4386428;32;20092;-66
2022/03/01 08:03:42;;;;;;;0.98;0.90;;;1.50;99.90;;;;;;4375103;32;20121;-65
2022/03/01 08:06:08;;;;;;;0.57;0.57;;;1.60;99.90;;;;;;4400538;32;20101;-65
2022/03/01 08:08:34;;;;;;;0.88;0.88;;;1.50;99.90;;;;;;4409509;32;20374;-65
2022/03/01 08:11:00;;;;;;;0.40;0.40;;;1.60;99.90;;;;;;4402286;32;20852;-71
2022/03/01 08:13:26;;;;;;;24.17;1.80;;;1.60;99.90;;;;;;4400288;32;20117;-66
2022/03/01 08:15:52;;;;;;;0.68;0.68;;;1.60;99.90;;;;;;4394173;32;20101;-65
2022/03/01 08:18:17;;;;;;;1.23;1.12;;;1.70;99.90;;;;;;4391998;32;20674;-66
2022/03/01 08:20:43;;;;;;;0.88;0.88;;;1.80;99.90;;;;;;4398768;32;20100;-66
2022/03/01 08:23:09;;;;;;;3.03;2.47;;;1.80;99.90;;;;;;4399401;32;20081;-66
2022/03/01 08:25:35;;;;;;;0.85;0.85;;;2.10;99.90;;;;;;4397492;32;20573;-66
2022/03/01 08:28:01;;;;;;;10.48;3.12;;;2.20;99.90;;;;;;4404763;32;20085;-65
2022/03/01 08:30:28;;;;;;;0.50;0.50;;;2.40;99.90;;;;;;4390259;32;20156;-66
2022/03/01 08:32:54;;;;;;;1.75;1.15;;;2.50;99.90;;;;;;4408365;32;20105;-66
2022/03/01 08:35:20;;;;;;;15.88;2.25;;;2.40;99.90;;;;;;4405032;32;20471;-66
2022/03/01 08:37:46;;;;;;;2.05;1.15;;;2.50;99.90;;;;;;4404507;32;20191;-65
2022/03/01 08:40:13;;;;;;;1.12;0.90;;;2.60;99.90;;;;;;4410287;32;20211;-66
2022/03/01 08:42:39;;;;;;;0.90;0.75;;;2.70;99.90;;;;;;4408599;32;20663;-66
2022/03/01 08:45:06;;;;;;;2.50;1.80;;;2.80;99.90;;;;;;4413971;32;20432;-66
2022/03/01 08:47:31;;;;;;;0.77;0.77;;;3.00;99.90;;;;;;4410151;32;20957;-66
2022/03/01 08:49:57;;;;;;;1.08;1.00;;;3.10;99.90;;;;;;4396763;32;20239;-66
2022/03/01 08:52:23;;;;;;;1.80;0.88;;;3.10;99.90;;;;;;4412970;32;20088;-66
2022/03/01 08:54:48;;;;;;;1.02;1.02;;;3.10;99.90;;;;;;4390012;32;20120;-65
2022/03/01 08:57:14;;;;;;;3.85;2.15;;;3.20;99.90;;;;;;4403207;32;20552;-65
2022/03/01 08:59:40;;;;;;;1.00;1.00;;;3.30;99.90;;;;;;4405465;32;20112;-65
2022/03/01 09:02:06;;;;;;;4.00;1.00;;;3.50;99.90;;;;;;4402271;32;20093;-65
2022/03/01 09:04:31;;;;;;;1.95;1.12;;;3.50;99.90;;;;;;4407840;32;20121;-66
2022/03/01 09:06:57;;;;;;;1.40;0.65;;;3.60;99.90;;;;;;4409029;32;20081;-66
2022/03/01 09:09:22;;;;;;;0.60;0.60;;;3.70;99.90;;;;;;4405438;32;20081;-66
2022/03/01 09:11:48;;;;;;;0.70;0.70;;;3.80;99.90;;;;;;4411704;32;20101;-66
2022/03/01 09:14:13;;;;;;;0.50;0.50;;;3.70;99.90;;;;;;4407431;32;20119;-65
2022/03/01 09:16:39;;;;;;;0.77;0.77;;;3.80;99.90;;;;;;4400585;32;20104;-65
2022/03/01 09:19:05;;;;;;;0.93;0.93;;;3.80;99.90;;;;;;4401549;32;20163;-65
2022/03/01 09:21:31;;;;;;;1.12;1.08;;;3.90;99.90;;;;;;4400224;32;20474;-66
2022/03/01 09:23:56;;;;;;;1.35;1.25;;;4.10;99.90;;;;;;4403256;32;20163;-66
2022/03/01 09:26:22;;;;;;;0.98;0.98;;;4.30;99.90;;;;;;4403938;32;20746;-66
2022/03/01 09:28:47;;;;;;;1.30;1.20;;;4.30;99.90;;;;;;4408098;32;20143;-65
2022/03/01 09:31:13;;;;;;;0.85;0.85;;;4.30;99.90;;;;;;4411184;32;20073;-66
2022/03/01 09:33:42;;;;;;;0.80;0.80;;;4.60;99.90;;;;;;4408270;32;20085;-66
2022/03/01 09:36:10;;;;;;;0.70;0.70;;;4.80;99.20;;;;;;4407189;32;20629;-66
2022/03/01 09:38:36;;;;;;;1.02;0.70;;;4.80;98.60;;;;;;4407032;32;20096;-66
2022/03/01 09:41:02;;;;;;;0.62;0.62;;;4.80;99.80;;;;;;4405829;32;20104;-66
2022/03/01 09:43:27;;;;;;;0.57;0.57;;;5.00;99.50;;;;;;4401332;32;20186;-66
2022/03/01 09:45:53;;;;;;;4.32;1.17;;;5.30;98.10;;;;;;4407878;32;20081;-66
2022/03/01 09:48:18;;;;;;;1.00;0.55;;;5.50;97.40;;;;;;4403630;32;20556;-66
2022/03/01 09:50:46;;;;;;;0.98;0.88;;;5.60;96.60;;;;;;4403737;32;20276;-66
2022/03/01 09:53:12;;;;;;;22.48;1.62;;;5.60;96.00;;;;;;4407240;32;20089;-66
2022/03/01 09:55:37;;;;;;;1.40;1.30;;;5.60;94.90;;;;;;4400377;32;20475;-66
2022/03/01 09:58:03;;;;;;;0.70;0.70;;;5.70;95.00;;;;;;4401086;32;20069;-66
2022/03/01 10:00:29;;;;;;;8.75;1.95;;;5.90;94.10;;;;;;4403722;32;20668;-66
2022/03/01 10:02:56;;;;;;;0.93;0.93;;;5.90;94.40;;;;;;4410572;32;20105;-67
2022/03/01 10:05:40;;;;;;;2.03;1.48;;;6.00;93.90;;;;;;4402879;32;20300;-66
2022/03/01 10:08:15;;;;;;;1.48;1.20;;;6.20;93.50;;;;;;4406944;32;21210;-66
2022/03/01 10:10:44;;;;;;;1.60;0.90;;;6.50;93.10;;;;;;4406871;32;20097;-67
2022/03/01 10:13:13;;;;;;;0.95;0.90;;;6.70;93.20;;;;;;4407660;32;20080;-67
2022/03/01 10:15:39;;;;;;;0.50;0.50;;;7.00;91.90;;;;;;4407885;32;20241;-66
2022/03/01 10:18:14;;;;;;;0.85;0.85;;;6.70;91.30;;;;;;4415886;32;20227;-66
2022/03/01 10:20:44;;;;;;;0.57;0.57;;;6.80;91.60;;;;;;4412955;32;20546;-66
2022/03/01 10:23:10;;;;;;;2.50;1.35;;;7.20;90.30;;;;;;4410542;32;20168;-67
2022/03/01 10:25:36;;;;;;;12.43;2.25;;;7.50;89.70;;;;;;4406419;32;20485;-65
2022/03/01 10:28:03;;;;;;;0.80;0.80;;;7.50;88.40;;;;;;4400522;32;20169;-66
2022/03/01 10:30:31;;;;;;;0.73;0.73;;;7.50;88.20;;;;;;4404669;32;20226;-65
2022/03/01 10:33:14;;;;;;;0.50;0.50;;;7.70;87.10;;;;;;4404141;32;20577;-66
2022/03/01 10:35:42;;;;;;;0.57;0.57;;;7.70;86.50;;;;;;4390230;32;20212;-66
2022/03/01 10:38:10;;;;;;;1.42;1.17;;;7.80;85.60;;;;;;4393674;32;20109;-66
2022/03/01 10:40:38;;;;;;;0.75;0.70;;;7.80;83.70;;;;;;4398722;32;20085;-65
2022/03/01 10:43:09;;;;;;;2.95;1.58;;;7.50;84.70;;;;;;4401958;32;20186;-65
2022/03/01 10:45:47;;;;;;;0.43;0.43;;;7.30;84.20;;;;;;4388793;32;20096;-66
2022/03/01 10:48:25;;;;;;;0.60;0.60;;;7.20;85.00;;;;;;4401493;32;20060;-66
2022/03/01 10:51:03;;;;;;;0.47;0.47;;;7.30;85.10;;;;;;4402896;32;20179;-66
2022/03/01 10:53:39;;;;;;;0.70;0.70;;;7.50;83.50;;;;;;4391426;32;20536;-66
2022/03/01 10:56:10;;;;;;;1.15;1.05;;;7.30;82.50;;;;;;4408190;32;20097;-66
2022/03/01 10:58:36;;;;;;;0.80;0.80;;;7.30;83.30;;;;;;4417880;32;20529;-66
2022/03/01 11:01:03;;;;;;;0.62;0.62;;;7.30;82.20;;;;;;4410025;32;20093;-66
2022/03/01 11:03:30;;;;;;;6.43;2.45;;;7.20;83.40;;;;;;4405469;32;20175;-66
2022/03/01 11:05:56;;;;;;;0.77;0.77;;;7.20;86.20;;;;;;4391422;32;20168;-66
2022/03/01 11:08:28;;;;;;;1.42;0.80;;;7.50;84.00;;;;;;4405328;32;20112;-66
2022/03/01 11:10:54;;;;;;;2.37;0.98;;;7.40;84.10;;;;;;4392332;32;20096;-65
2022/03/01 11:13:24;;;;;;;1.25;0.82;;;7.60;82.70;;;;;;4406830;32;20113;-66
2022/03/01 11:16:08;;;;;;;3.62;0.80;;;7.50;82.50;;;;;;4410440;32;20097;-66
2022/03/01 11:18:55;;;;;;;1.65;1.00;;;7.50;82.90;;;;;;4398656;32;20120;-67
2022/03/01 11:21:21;;;;;;;0.52;0.52;;;7.70;83.10;;;;;;4402201;32;20131;-65
2022/03/01 11:23:48;;;;;;;1.08;0.98;;;8.10;84.00;;;;;;4410878;32;20096;-65
2022/03/01 11:26:16;;;;;;;0.60;0.60;;;8.70;82.90;;;;;;4414125;32;20143;-66
2022/03/01 11:28:55;;;;;;;2.17;1.62;;;8.70;81.60;;;;;;4417878;32;20157;-66
2022/03/01 11:31:25;;;;;;;0.50;0.50;;;8.70;80.00;;;;;;4418432;32;20097;-66
2022/03/01 11:33:56;;;;;;;0.70;0.70;;;8.40;81.50;;;;;;4409460;32;20126;-66
2022/03/01 11:36:23;;;;;;;0.45;0.45;;;8.60;81.60;;;;;;4419380;32;20215;-66
2022/03/01 11:38:49;;;;;;;1.87;1.25;;;8.80;80.60;;;;;;4420745;32;20596;-65
2022/03/01 11:41:20;;;;;;;0.95;0.80;;;8.80;80.40;;;;;;4423750;32;20167;-65
2022/03/01 11:43:54;;;;;;;1.40;0.95;;;8.80;80.50;;;;;;4426358;32;21354;-65
2022/03/01 11:46:20;;;;;;;10.40;1.35;;;9.10;83.00;;;;;;4421109;32;20094;-66
2022/03/01 11:48:52;;;;;;;0.80;0.80;;;9.70;77.40;;;;;;4429815;32;20568;-65
2022/03/01 11:51:18;;;;;;;22.73;1.85;;;9.60;78.00;;;;;;4396311;32;20359;-66
2022/03/01 11:53:49;;;;;;;8.57;1.25;;;9.60;78.60;;;;;;4393929;32;20642;-66
2022/03/01 11:56:15;;;;;;;0.50;0.50;;;9.60;76.90;;;;;;4392849;32;20661;-67
2022/03/01 11:58:48;;;;;;;4.95;1.15;;;9.80;76.10;;;;;;4397032;32;20124;-67
2022/03/01 12:01:13;;;;;;;0.68;0.60;;;10.00;76.70;;;;;;4406168;32;20085;-67
2022/03/01 12:03:39;;;;;;;0.73;0.68;;;10.40;75.80;;;;;;4408261;32;20109;-67
2022/03/01 12:06:06;;;;;;;0.77;0.77;;;10.70;71.70;;;;;;4401848;32;20299;-67
2022/03/01 12:08:32;;;;;;;1.15;1.00;;;10.80;70.20;;;;;;4403369;32;20283;-67
2022/03/01 12:11:06;;;;;;;0.62;0.62;;;10.80;71.90;;;;;;4413623;32;21129;-72
2022/03/01 12:13:45;;;;;;;1.02;0.90;;;11.50;68.90;;;;;;4402910;32;20623;-67
2022/03/01 12:16:13;;;;;;;0.82;0.65;;;11.90;68.40;;;;;;4423082;32;20123;-67
2022/03/01 12:18:40;;;;;;;1.77;1.27;;;12.20;64.70;;;;;;4423573;32;20825;-67
2022/03/01 12:21:10;;;;;;;0.90;0.90;;;12.60;62.60;;;;;;4417376;32;20105;-67
2022/03/01 12:23:37;;;;;;;0.82;0.82;;;12.40;61.90;;;;;;4422901;32;22054;-67
2022/03/01 12:26:05;;;;;;;0.65;0.65;;;12.00;63.20;;;;;;4416938;32;20073;-66
2022/03/01 12:28:37;;;;;;;1.45;0.90;;;11.90;63.40;;;;;;4407641;32;20598;-67
2022/03/01 12:31:08;;;;;;;1.77;1.27;;;12.40;63.30;;;;;;4418232;32;20080;-66
2022/03/01 12:33:33;;;;;;;;;;;12.10;61.70;;;;;;4407382;32;20092;-67
2022/03/01 12:36:03;;;;;;;0.60;0.60;;;12.50;63.70;;;;;;4421037;32;20063;-67
2022/03/01 12:38:31;;;;;;;1.05;0.60;;;12.70;60.70;;;;;;4417910;32;20103;-66
2022/03/01 12:41:08;;;;;;;0.70;0.70;;;13.20;59.70;;;;;;4401806;32;20118;-67
2022/03/01 12:43:33;;;;;;;0.70;0.70;;;13.60;58.40;;;;;;4394530;32;20093;-66
2022/03/01 12:45:59;;;;;;;0.73;0.70;;;13.80;55.90;;;;;;4415392;32;20097;-66
2022/03/01 12:48:24;;;;;;;0.75;0.75;;;13.30;56.10;;;;;;4418261;32;20169;-66
2022/03/01 12:50:52;;;;;;;2.47;1.83;;;13.40;56.30;;;;;;4420179;32;21408;-66